EISG/SXL METAR and TAF weather

Enter ICAO airport designator
Station Type Date Time Source
EISG METAR 2021/05/14 07:00 UTC NOAA

EISG 140700Z 08004KT 9999 OVC014 09/09 Q1010


Station Type Date Time Source
EISG Decoded METAR 2021/05/14 07:00 UTC NOAA

Station name not available
May 14, 2021 - 03:00 AM EDT / 2021.05.14 0700 UTC
Wind: from the E (080 degrees) at 5 MPH (4 KT):0
Visibility: greater than 7 mile(s):0
Sky conditions: overcast
Temperature: 48 F (9 C)
Dew Point: 48 F (9 C)
Relative Humidity: 100%
Pressure (altimeter): 29.83 in. Hg (1010 hPa)
ob: EISG 140700Z 08004KT 9999 OVC014 09/09 Q1010
cycle: 7

Station Type Date Time Source
EISG TAF UTC NOAA

Error!

Example: see airport list